Nezah, Canada
Current Conditions -  °F | °C
As of 6:00 PM on Saturday 20 Dec 2014 (Local Time) from CYGQ Reporting Station
Overcast Overcast  
Wind Chill: 25°   Ceiling: 2000
Heat Index: 25°   Visibility: 15mi
Dew Point: 23°   Wind: 3mph
Humidity: 93%   Direction: 140°SE
Pressure: 30.14"   Gusts: NA
Location:  49.66°N, 87.68°W
Report Text: CYGQ 202300Z 14003KT 15SM OVC020 M04/M05 A3014 RMK SC8 SLP234
Loading
Personal Weather Stations






























Interactive Weather Map New forecast layout! Learn more

10-Day Weather Forecast

Advertisements
Track Severe Weather on mobile